NCAR-RAP Real-Time Weather Data

Output produced by METARs form (06 July 2020  12:10 UTC)
found at http://weather.rap.ucar.edu/surface/
 
Conditions at: KTYQ observed 06 July 2020  11:55 UTC
Temperature: 22.4°C (72°F)
Dewpoint: 22.4°C (72°F) [RH = 100%]
Pressure (altimeter): 30.02 inches Hg (1016.7 mb)
Winds: calm
Visibility: 7 miles (11 km)
Ceiling: at least 12,000 feet AGL
Clouds: sky clear below 12,000 feet AGL
Present Weather: automated observation with no human augmentation;
there may or may not be significant weather present at this time
KTYQ 061155Z AUTO 00000KT 7SM CLR 22/22 A3002 RMK AO2 LTG DSNT SE T02240224 10224 20185